Terminal Aerodrome Forecast
Issued by NWS

Home | Current Version | Previous Version | Text Only | Print | Product List | Glossary On
Versions: 1 2 3 4 5 6 7 8 9 10 11 12 13 14 15 16 17 18 19 20 21
000
FTUS43 KDLH 301400 AAB
TAFHYR
TAF AMD
KHYR 301449Z 3015/3112 22003KT P6SM BKN003
     FM301530 28004KT P6SM FEW010
     FM302000 30009KT P6SM VCTS SCT040CB BKN070
     FM310200 00000KT P6SM SCT090
      TEMPO 3107/3110 3SM BR=

USA.gov is the U.S. government's official web portal to all federal, state and local government web resources and services.